sensor_id;sensor_type;location;lat;lon;timestamp;temperature;humidity
9167;DHT22;4618;48.818;9.088;2022-12-26T00:01:38;12.10;1.00
9167;DHT22;4618;48.818;9.088;2022-12-26T00:04:04;12.10;1.00
9167;DHT22;4618;48.818;9.088;2022-12-26T00:06:30;12.00;1.00
9167;DHT22;4618;48.818;9.088;2022-12-26T00:08:56;12.10;1.00
9167;DHT22;4618;48.818;9.088;2022-12-26T00:11:22;12.00;1.00
9167;DHT22;4618;48.818;9.088;2022-12-26T00:13:54;12.00;1.00
9167;DHT22;4618;48.818;9.088;2022-12-26T00:16:20;12.00;1.00
9167;DHT22;4618;48.818;9.088;2022-12-26T00:18:46;12.00;1.00
9167;DHT22;4618;48.818;9.088;2022-12-26T00:21:13;12.10;1.00
9167;DHT22;4618;48.818;9.088;2022-12-26T00:23:40;12.00;1.00
9167;DHT22;4618;48.818;9.088;2022-12-26T00:26:14;12.00;1.00
9167;DHT22;4618;48.818;9.088;2022-12-26T00:28:41;11.90;1.00
9167;DHT22;4618;48.818;9.088;2022-12-26T00:31:09;11.90;1.00
9167;DHT22;4618;48.818;9.088;2022-12-26T00:33:35;12.00;1.00
9167;DHT22;4618;48.818;9.088;2022-12-26T00:36:06;11.90;1.00
9167;DHT22;4618;48.818;9.088;2022-12-26T00:38:34;11.90;1.00
9167;DHT22;4618;48.818;9.088;2022-12-26T00:41:00;11.90;1.00
9167;DHT22;4618;48.818;9.088;2022-12-26T00:43:25;11.80;61.40
9167;DHT22;4618;48.818;9.088;2022-12-26T00:45:51;11.70;99.90
9167;DHT22;4618;48.818;9.088;2022-12-26T00:48:17;11.70;99.90
9167;DHT22;4618;48.818;9.088;2022-12-26T00:50:42;11.70;99.90
9167;DHT22;4618;48.818;9.088;2022-12-26T00:53:08;11.50;99.90
9167;DHT22;4618;48.818;9.088;2022-12-26T00:55:33;11.60;99.90
9167;DHT22;4618;48.818;9.088;2022-12-26T00:57:59;11.60;99.90
9167;DHT22;4618;48.818;9.088;2022-12-26T01:00:24;11.50;99.90
9167;DHT22;4618;48.818;9.088;2022-12-26T01:02:50;11.40;99.90
9167;DHT22;4618;48.818;9.088;2022-12-26T01:05:16;11.30;1.00
9167;DHT22;4618;48.818;9.088;2022-12-26T01:07:41;11.10;1.00
9167;DHT22;4618;48.818;9.088;2022-12-26T01:10:10;10.80;6.00
9167;DHT22;4618;48.818;9.088;2022-12-26T01:12:35;10.50;99.90
9167;DHT22;4618;48.818;9.088;2022-12-26T01:15:01;10.40;99.90
9167;DHT22;4618;48.818;9.088;2022-12-26T01:17:27;10.20;1.00
9167;DHT22;4618;48.818;9.088;2022-12-26T01:19:54;10.00;1.00
9167;DHT22;4618;48.818;9.088;2022-12-26T01:22:19;9.90;19.50
9167;DHT22;4618;48.818;9.088;2022-12-26T01:24:45;9.80;99.90
9167;DHT22;4618;48.818;9.088;2022-12-26T01:27:11;9.80;99.90
9167;DHT22;4618;48.818;9.088;2022-12-26T01:29:37;9.70;99.90
9167;DHT22;4618;48.818;9.088;2022-12-26T01:32:03;9.60;99.90
9167;DHT22;4618;48.818;9.088;2022-12-26T01:34:28;9.60;99.90
9167;DHT22;4618;48.818;9.088;2022-12-26T01:36:54;9.50;1.00
9167;DHT22;4618;48.818;9.088;2022-12-26T01:39:20;9.40;1.00
9167;DHT22;4618;48.818;9.088;2022-12-26T01:41:46;9.30;1.00
9167;DHT22;4618;48.818;9.088;2022-12-26T01:47:15;9.30;5.90
9167;DHT22;4618;48.818;9.088;2022-12-26T01:49:43;9.20;23.30
9167;DHT22;4618;48.818;9.088;2022-12-26T01:52:24;9.20;99.10
9167;DHT22;4618;48.818;9.088;2022-12-26T01:54:53;9.20;94.80
9167;DHT22;4618;48.818;9.088;2022-12-26T01:57:29;9.20;99.90
9167;DHT22;4618;48.818;9.088;2022-12-26T01:59:57;9.20;99.90
9167;DHT22;4618;48.818;9.088;2022-12-26T02:02:25;9.20;99.90
9167;DHT22;4618;48.818;9.088;2022-12-26T02:04:51;9.30;99.90
9167;DHT22;4618;48.818;9.088;2022-12-26T02:07:39;9.30;57.90
9167;DHT22;4618;48.818;9.088;2022-12-26T02:10:08;9.30;1.00
9167;DHT22;4618;48.818;9.088;2022-12-26T02:12:37;9.30;11.10
9167;DHT22;4618;48.818;9.088;2022-12-26T02:15:04;9.30;1.00
9167;DHT22;4618;48.818;9.088;2022-12-26T02:17:30;9.20;39.90
9167;DHT22;4618;48.818;9.088;2022-12-26T02:20:18;9.20;64.60
9167;DHT22;4618;48.818;9.088;2022-12-26T02:25:39;9.20;99.90
9167;DHT22;4618;48.818;9.088;2022-12-26T02:39:40;9.40;1.00
9167;DHT22;4618;48.818;9.088;2022-12-26T02:45:36;9.50;1.00
9167;DHT22;4618;48.818;9.088;2022-12-26T02:54:21;9.60;1.00
9167;DHT22;4618;48.818;9.088;2022-12-26T02:57:11;9.70;99.90
9167;DHT22;4618;48.818;9.088;2022-12-26T03:00:04;9.90;99.90
9167;DHT22;4618;48.818;9.088;2022-12-26T03:02:54;10.00;99.90
9167;DHT22;4618;48.818;9.088;2022-12-26T03:06:02;10.40;1.00
9167;DHT22;4618;48.818;9.088;2022-12-26T03:08:48;10.50;99.90
9167;DHT22;4618;48.818;9.088;2022-12-26T03:11:42;10.40;1.00
9167;DHT22;4618;48.818;9.088;2022-12-26T03:14:42;10.50;1.00
9167;DHT22;4618;48.818;9.088;2022-12-26T03:17:11;10.60;99.90
9167;DHT22;4618;48.818;9.088;2022-12-26T03:19:56;10.70;99.90
9167;DHT22;4618;48.818;9.088;2022-12-26T03:24:55;10.70;99.90
9167;DHT22;4618;48.818;9.088;2022-12-26T03:27:41;10.80;48.50
9167;DHT22;4618;48.818;9.088;2022-12-26T03:30:07;11.00;1.00
9167;DHT22;4618;48.818;9.088;2022-12-26T03:32:54;11.10;1.00
9167;DHT22;4618;48.818;9.088;2022-12-26T03:35:20;11.10;1.00
9167;DHT22;4618;48.818;9.088;2022-12-26T03:37:54;10.80;1.00
9167;DHT22;4618;48.818;9.088;2022-12-26T03:40:39;10.90;1.00
9167;DHT22;4618;48.818;9.088;2022-12-26T03:49:41;11.00;1.00
9167;DHT22;4618;48.818;9.088;2022-12-26T03:52:55;11.20;1.00
9167;DHT22;4618;48.818;9.088;2022-12-26T03:55:59;11.20;1.00
9167;DHT22;4618;48.818;9.088;2022-12-26T04:01:35;11.50;99.90
9167;DHT22;4618;48.818;9.088;2022-12-26T04:04:21;11.60;99.90
9167;DHT22;4618;48.818;9.088;2022-12-26T04:07:13;11.70;99.90
9167;DHT22;4618;48.818;9.088;2022-12-26T04:10:03;11.70;99.90
9167;DHT22;4618;48.818;9.088;2022-12-26T04:12:49;11.80;99.90
9167;DHT22;4618;48.818;9.088;2022-12-26T04:16:21;11.70;99.90
9167;DHT22;4618;48.818;9.088;2022-12-26T04:19:17;11.80;99.90
9167;DHT22;4618;48.818;9.088;2022-12-26T04:21:52;11.80;99.90
9167;DHT22;4618;48.818;9.088;2022-12-26T04:24:53;11.90;83.90
9167;DHT22;4618;48.818;9.088;2022-12-26T04:27:39;11.90;45.70
9167;DHT22;4618;48.818;9.088;2022-12-26T04:30:23;11.90;73.90
9167;DHT22;4618;48.818;9.088;2022-12-26T04:33:18;12.00;1.00
9167;DHT22;4618;48.818;9.088;2022-12-26T04:36:14;11.90;22.50
9167;DHT22;4618;48.818;9.088;2022-12-26T04:39:02;12.00;5.70
9167;DHT22;4618;48.818;9.088;2022-12-26T04:41:48;12.00;1.00
9167;DHT22;4618;48.818;9.088;2022-12-26T04:44:34;12.10;1.00
9167;DHT22;4618;48.818;9.088;2022-12-26T04:47:00;12.10;1.00
9167;DHT22;4618;48.818;9.088;2022-12-26T04:49:26;12.00;1.00
9167;DHT22;4618;48.818;9.088;2022-12-26T04:52:12;11.90;1.00
9167;DHT22;4618;48.818;9.088;2022-12-26T04:54:39;11.90;15.70
9167;DHT22;4618;48.818;9.088;2022-12-26T04:57:06;11.90;38.60
9167;DHT22;4618;48.818;9.088;2022-12-26T04:59:32;11.80;26.50
9167;DHT22;4618;48.818;9.088;2022-12-26T05:01:57;11.80;71.70
9167;DHT22;4618;48.818;9.088;2022-12-26T05:04:42;11.80;86.20
9167;DHT22;4618;48.818;9.088;2022-12-26T05:07:34;11.80;95.80
9167;DHT22;4618;48.818;9.088;2022-12-26T05:10:25;11.70;99.90
9167;DHT22;4618;48.818;9.088;2022-12-26T05:12:51;11.80;99.90
9167;DHT22;4618;48.818;9.088;2022-12-26T05:15:17;11.70;99.90
9167;DHT22;4618;48.818;9.088;2022-12-26T05:17:43;11.70;99.90
9167;DHT22;4618;48.818;9.088;2022-12-26T05:20:27;11.70;99.90
9167;DHT22;4618;48.818;9.088;2022-12-26T05:23:25;11.80;99.90
9167;DHT22;4618;48.818;9.088;2022-12-26T05:26:21;11.70;99.90
9167;DHT22;4618;48.818;9.088;2022-12-26T05:29:05;11.70;99.90
9167;DHT22;4618;48.818;9.088;2022-12-26T05:31:31;11.80;99.90
9167;DHT22;4618;48.818;9.088;2022-12-26T05:33:57;11.80;99.90
9167;DHT22;4618;48.818;9.088;2022-12-26T05:36:39;11.80;99.90
9167;DHT22;4618;48.818;9.088;2022-12-26T05:39:07;11.90;50.10
9167;DHT22;4618;48.818;9.088;2022-12-26T05:41:33;11.90;33.70
9167;DHT22;4618;48.818;9.088;2022-12-26T05:43:59;11.90;5.60
9167;DHT22;4618;48.818;9.088;2022-12-26T05:46:24;12.00;1.00
9167;DHT22;4618;48.818;9.088;2022-12-26T05:48:50;11.90;37.70
9167;DHT22;4618;48.818;9.088;2022-12-26T05:51:16;12.00;1.00
9167;DHT22;4618;48.818;9.088;2022-12-26T05:53:41;12.00;1.00
9167;DHT22;4618;48.818;9.088;2022-12-26T05:56:10;12.00;6.40
9167;DHT22;4618;48.818;9.088;2022-12-26T05:58:36;12.00;33.30
9167;DHT22;4618;48.818;9.088;2022-12-26T06:01:09;12.00;33.70
9167;DHT22;4618;48.818;9.088;2022-12-26T06:03:35;12.00;17.50
9167;DHT22;4618;48.818;9.088;2022-12-26T06:06:01;11.90;43.70
9167;DHT22;4618;48.818;9.088;2022-12-26T06:08:27;11.90;95.90
9167;DHT22;4618;48.818;9.088;2022-12-26T06:10:52;11.90;50.10
9167;DHT22;4618;48.818;9.088;2022-12-26T06:13:18;12.00;5.80
9167;DHT22;4618;48.818;9.088;2022-12-26T06:15:43;11.90;5.90
9167;DHT22;4618;48.818;9.088;2022-12-26T06:18:09;11.90;33.30
9167;DHT22;4618;48.818;9.088;2022-12-26T06:20:37;11.80;92.30
9167;DHT22;4618;48.818;9.088;2022-12-26T06:23:03;11.90;99.90
9167;DHT22;4618;48.818;9.088;2022-12-26T06:25:28;11.90;99.90
9167;DHT22;4618;48.818;9.088;2022-12-26T06:27:54;12.00;55.00
9167;DHT22;4618;48.818;9.088;2022-12-26T06:30:19;12.00;50.60
9167;DHT22;4618;48.818;9.088;2022-12-26T06:32:45;11.90;97.40
9167;DHT22;4618;48.818;9.088;2022-12-26T06:35:11;11.90;67.20
9167;DHT22;4618;48.818;9.088;2022-12-26T06:37:37;11.80;99.90
9167;DHT22;4618;48.818;9.088;2022-12-26T06:40:03;11.80;99.90
9167;DHT22;4618;48.818;9.088;2022-12-26T06:42:29;11.90;99.40
9167;DHT22;4618;48.818;9.088;2022-12-26T06:44:54;11.90;85.40
9167;DHT22;4618;48.818;9.088;2022-12-26T06:47:20;11.90;32.50
9167;DHT22;4618;48.818;9.088;2022-12-26T06:49:45;11.90;25.60
9167;DHT22;4618;48.818;9.088;2022-12-26T06:52:11;11.90;61.20
9167;DHT22;4618;48.818;9.088;2022-12-26T06:54:38;11.90;78.70
9167;DHT22;4618;48.818;9.088;2022-12-26T06:57:04;12.00;23.70
9167;DHT22;4618;48.818;9.088;2022-12-26T06:59:29;12.10;1.00
9167;DHT22;4618;48.818;9.088;2022-12-26T07:01:55;12.10;1.00
9167;DHT22;4618;48.818;9.088;2022-12-26T07:04:20;12.10;1.00
9167;DHT22;4618;48.818;9.088;2022-12-26T07:06:46;12.10;1.00
9167;DHT22;4618;48.818;9.088;2022-12-26T07:09:14;12.10;1.00
9167;DHT22;4618;48.818;9.088;2022-12-26T07:11:44;12.20;1.00
9167;DHT22;4618;48.818;9.088;2022-12-26T07:14:11;12.10;1.00
9167;DHT22;4618;48.818;9.088;2022-12-26T07:16:38;12.00;4.30
9167;DHT22;4618;48.818;9.088;2022-12-26T07:19:04;12.00;21.40
9167;DHT22;4618;48.818;9.088;2022-12-26T07:21:30;12.00;27.90
9167;DHT22;4618;48.818;9.088;2022-12-26T07:23:56;11.90;99.90
9167;DHT22;4618;48.818;9.088;2022-12-26T07:26:23;11.90;99.90
9167;DHT22;4618;48.818;9.088;2022-12-26T07:28:56;11.90;99.90
9167;DHT22;4618;48.818;9.088;2022-12-26T07:31:23;11.90;99.90
9167;DHT22;4618;48.818;9.088;2022-12-26T07:33:51;12.00;99.90
9167;DHT22;4618;48.818;9.088;2022-12-26T07:36:16;12.00;99.90
9167;DHT22;4618;48.818;9.088;2022-12-26T07:38:42;12.00;99.90
9167;DHT22;4618;48.818;9.088;2022-12-26T07:41:08;12.00;99.90
9167;DHT22;4618;48.818;9.088;2022-12-26T07:43:53;12.00;99.90
9167;DHT22;4618;48.818;9.088;2022-12-26T07:46:18;12.10;99.90
9167;DHT22;4618;48.818;9.088;2022-12-26T07:48:44;12.10;99.90
9167;DHT22;4618;48.818;9.088;2022-12-26T07:51:10;12.10;83.60
9167;DHT22;4618;48.818;9.088;2022-12-26T07:53:36;12.10;65.00
9167;DHT22;4618;48.818;9.088;2022-12-26T07:56:02;12.10;99.90
9167;DHT22;4618;48.818;9.088;2022-12-26T07:58:28;12.10;99.90
9167;DHT22;4618;48.818;9.088;2022-12-26T08:00:54;12.10;99.90
9167;DHT22;4618;48.818;9.088;2022-12-26T08:03:19;12.10;99.90
9167;DHT22;4618;48.818;9.088;2022-12-26T08:05:49;12.00;99.90
9167;DHT22;4618;48.818;9.088;2022-12-26T08:08:16;12.00;99.90
9167;DHT22;4618;48.818;9.088;2022-12-26T08:10:41;11.80;99.90
9167;DHT22;4618;48.818;9.088;2022-12-26T08:13:07;11.70;1.00
9167;DHT22;4618;48.818;9.088;2022-12-26T08:15:33;11.60;1.00
9167;DHT22;4618;48.818;9.088;2022-12-26T08:17:59;11.50;1.00
9167;DHT22;4618;48.818;9.088;2022-12-26T08:20:24;11.50;12.50
9167;DHT22;4618;48.818;9.088;2022-12-26T08:22:50;11.50;21.30
9167;DHT22;4618;48.818;9.088;2022-12-26T08:25:15;11.50;3.70
9167;DHT22;4618;48.818;9.088;2022-12-26T08:27:41;11.60;1.00
9167;DHT22;4618;48.818;9.088;2022-12-26T08:30:07;11.60;1.00
9167;DHT22;4618;48.818;9.088;2022-12-26T08:32:33;11.50;1.00
9167;DHT22;4618;48.818;9.088;2022-12-26T08:34:58;11.60;1.00
9167;DHT22;4618;48.818;9.088;2022-12-26T08:37:24;11.60;1.00
9167;DHT22;4618;48.818;9.088;2022-12-26T08:39:50;11.60;1.00
9167;DHT22;4618;48.818;9.088;2022-12-26T08:42:18;11.60;1.00
9167;DHT22;4618;48.818;9.088;2022-12-26T08:44:44;11.70;1.00
9167;DHT22;4618;48.818;9.088;2022-12-26T08:47:10;11.60;1.00
9167;DHT22;4618;48.818;9.088;2022-12-26T08:49:35;11.60;1.00
9167;DHT22;4618;48.818;9.088;2022-12-26T08:52:01;11.50;1.00
9167;DHT22;4618;48.818;9.088;2022-12-26T08:54:27;11.50;99.90
9167;DHT22;4618;48.818;9.088;2022-12-26T08:56:52;11.40;99.90
9167;DHT22;4618;48.818;9.088;2022-12-26T08:59:18;11.20;1.00
9167;DHT22;4618;48.818;9.088;2022-12-26T09:01:44;10.90;1.00
9167;DHT22;4618;48.818;9.088;2022-12-26T09:04:09;10.70;99.90
9167;DHT22;4618;48.818;9.088;2022-12-26T09:06:36;10.50;1.00
9167;DHT22;4618;48.818;9.088;2022-12-26T09:09:03;10.40;1.00
9167;DHT22;4618;48.818;9.088;2022-12-26T09:11:29;10.30;99.90
9167;DHT22;4618;48.818;9.088;2022-12-26T09:13:57;10.10;1.00
9167;DHT22;4618;48.818;9.088;2022-12-26T09:16:25;10.00;99.90
9167;DHT22;4618;48.818;9.088;2022-12-26T09:18:57;10.00;1.00
9167;DHT22;4618;48.818;9.088;2022-12-26T09:21:23;10.00;23.30
9167;DHT22;4618;48.818;9.088;2022-12-26T09:23:49;9.90;99.90
9167;DHT22;4618;48.818;9.088;2022-12-26T09:26:17;9.90;1.00
9167;DHT22;4618;48.818;9.088;2022-12-26T09:28:43;9.80;1.00
9167;DHT22;4618;48.818;9.088;2022-12-26T09:31:12;9.90;26.00
9167;DHT22;4618;48.818;9.088;2022-12-26T09:33:39;10.00;99.90
9167;DHT22;4618;48.818;9.088;2022-12-26T09:36:07;10.00;99.90
9167;DHT22;4618;48.818;9.088;2022-12-26T09:38:33;10.10;99.90
9167;DHT22;4618;48.818;9.088;2022-12-26T09:41:04;10.00;99.90
9167;DHT22;4618;48.818;9.088;2022-12-26T09:46:31;9.80;99.90
9167;DHT22;4618;48.818;9.088;2022-12-26T09:49:09;9.70;99.90
9167;DHT22;4618;48.818;9.088;2022-12-26T09:51:36;9.50;1.00
9167;DHT22;4618;48.818;9.088;2022-12-26T09:54:05;9.50;1.00
9167;DHT22;4618;48.818;9.088;2022-12-26T09:56:35;9.40;99.90
9167;DHT22;4618;48.818;9.088;2022-12-26T09:59:10;9.40;99.90
9167;DHT22;4618;48.818;9.088;2022-12-26T10:01:37;9.30;99.90
9167;DHT22;4618;48.818;9.088;2022-12-26T10:04:20;9.40;1.00
9167;DHT22;4618;48.818;9.088;2022-12-26T10:06:55;9.40;1.00
9167;DHT22;4618;48.818;9.088;2022-12-26T10:23:06;9.40;1.00
9167;DHT22;4618;48.818;9.088;2022-12-26T10:28:00;9.50;66.90
9167;DHT22;4618;48.818;9.088;2022-12-26T10:30:33;9.50;51.30
9167;DHT22;4618;48.818;9.088;2022-12-26T10:33:03;9.60;29.90
9167;DHT22;4618;48.818;9.088;2022-12-26T10:35:40;9.70;1.00
9167;DHT22;4618;48.818;9.088;2022-12-26T10:41:02;9.80;99.90
9167;DHT22;4618;48.818;9.088;2022-12-26T10:43:32;9.90;99.90
9167;DHT22;4618;48.818;9.088;2022-12-26T10:48:36;9.90;1.00
9167;DHT22;4618;48.818;9.088;2022-12-26T10:51:02;9.90;1.00
9167;DHT22;4618;48.818;9.088;2022-12-26T10:53:28;9.90;1.00
9167;DHT22;4618;48.818;9.088;2022-12-26T10:55:53;10.00;1.00
9167;DHT22;4618;48.818;9.088;2022-12-26T10:58:33;10.00;1.00
9167;DHT22;4618;48.818;9.088;2022-12-26T11:01:29;10.00;1.00
9167;DHT22;4618;48.818;9.088;2022-12-26T11:03:57;9.90;1.00
9167;DHT22;4618;48.818;9.088;2022-12-26T11:06:27;10.00;99.90
9167;DHT22;4618;48.818;9.088;2022-12-26T11:08:53;9.90;1.00
9167;DHT22;4618;48.818;9.088;2022-12-26T11:11:33;9.90;1.00
9167;DHT22;4618;48.818;9.088;2022-12-26T11:16:53;9.90;1.00
9167;DHT22;4618;48.818;9.088;2022-12-26T11:19:49;10.00;99.90
9167;DHT22;4618;48.818;9.088;2022-12-26T11:22:32;10.00;99.90
9167;DHT22;4618;48.818;9.088;2022-12-26T11:27:43;10.10;99.90
9167;DHT22;4618;48.818;9.088;2022-12-26T11:35:34;10.30;1.00
9167;DHT22;4618;48.818;9.088;2022-12-26T11:38:04;10.40;1.00
9167;DHT22;4618;48.818;9.088;2022-12-26T11:40:38;10.50;1.00
9167;DHT22;4618;48.818;9.088;2022-12-26T11:43:25;10.50;99.90
9167;DHT22;4618;48.818;9.088;2022-12-26T11:45:51;10.40;99.90
9167;DHT22;4618;48.818;9.088;2022-12-26T11:48:26;10.40;1.00
9167;DHT22;4618;48.818;9.088;2022-12-26T11:50:53;10.40;1.00
9167;DHT22;4618;48.818;9.088;2022-12-26T11:53:21;10.40;99.90
9167;DHT22;4618;48.818;9.088;2022-12-26T11:56:04;10.40;99.90
9167;DHT22;4618;48.818;9.088;2022-12-26T11:58:31;10.40;99.90
9167;DHT22;4618;48.818;9.088;2022-12-26T12:03:41;10.50;1.00
9167;DHT22;4618;48.818;9.088;2022-12-26T12:07:00;10.50;1.00
9167;DHT22;4618;48.818;9.088;2022-12-26T12:11:57;10.70;1.00
9167;DHT22;4618;48.818;9.088;2022-12-26T12:17:20;10.90;1.00
9167;DHT22;4618;48.818;9.088;2022-12-26T12:25:51;11.10;99.90
9167;DHT22;4618;48.818;9.088;2022-12-26T12:28:58;11.10;99.90
9167;DHT22;4618;48.818;9.088;2022-12-26T12:31:42;11.10;1.00
9167;DHT22;4618;48.818;9.088;2022-12-26T12:37:32;10.90;1.00
9167;DHT22;4618;48.818;9.088;2022-12-26T12:40:41;10.80;1.00
9167;DHT22;4618;48.818;9.088;2022-12-26T12:48:56;10.90;28.10
9167;DHT22;4618;48.818;9.088;2022-12-26T12:51:51;10.90;1.00
9167;DHT22;4618;48.818;9.088;2022-12-26T12:57:03;10.90;1.00
9167;DHT22;4618;48.818;9.088;2022-12-26T13:00:10;10.90;18.00
9167;DHT22;4618;48.818;9.088;2022-12-26T13:02:43;10.80;1.00
9167;DHT22;4618;48.818;9.088;2022-12-26T13:07:49;10.90;1.00
9167;DHT22;4618;48.818;9.088;2022-12-26T13:10:29;10.90;1.00
9167;DHT22;4618;48.818;9.088;2022-12-26T13:12:56;10.80;1.00
9167;DHT22;4618;48.818;9.088;2022-12-26T13:15:31;10.90;1.00
9167;DHT22;4618;48.818;9.088;2022-12-26T13:18:02;10.90;1.00
9167;DHT22;4618;48.818;9.088;2022-12-26T13:20:52;10.80;1.00
9167;DHT22;4618;48.818;9.088;2022-12-26T13:23:28;10.80;1.00
9167;DHT22;4618;48.818;9.088;2022-12-26T13:26:23;10.90;1.00
9167;DHT22;4618;48.818;9.088;2022-12-26T13:31:45;11.00;1.00
9167;DHT22;4618;48.818;9.088;2022-12-26T13:34:18;11.00;99.90
9167;DHT22;4618;48.818;9.088;2022-12-26T13:44:42;11.10;99.90
9167;DHT22;4618;48.818;9.088;2022-12-26T13:47:34;11.10;99.90
9167;DHT22;4618;48.818;9.088;2022-12-26T13:53:03;11.10;99.90
9167;DHT22;4618;48.818;9.088;2022-12-26T13:55:40;10.90;99.90
9167;DHT22;4618;48.818;9.088;2022-12-26T13:58:18;10.90;1.00
9167;DHT22;4618;48.818;9.088;2022-12-26T14:00:47;10.80;1.00
9167;DHT22;4618;48.818;9.088;2022-12-26T14:03:45;10.80;1.00
9167;DHT22;4618;48.818;9.088;2022-12-26T14:11:36;10.70;1.00
9167;DHT22;4618;48.818;9.088;2022-12-26T14:20:01;10.60;99.90
9167;DHT22;4618;48.818;9.088;2022-12-26T14:25:12;10.60;99.90
9167;DHT22;4618;48.818;9.088;2022-12-26T14:30:28;10.70;99.90
9167;DHT22;4618;48.818;9.088;2022-12-26T14:41:14;10.70;99.90
9167;DHT22;4618;48.818;9.088;2022-12-26T14:51:50;10.70;99.90
9167;DHT22;4618;48.818;9.088;2022-12-26T14:56:49;10.60;99.90
9167;DHT22;4618;48.818;9.088;2022-12-26T14:59:32;10.60;1.00
9167;DHT22;4618;48.818;9.088;2022-12-26T15:02:30;10.60;1.00
9167;DHT22;4618;48.818;9.088;2022-12-26T15:05:02;10.50;1.00
9167;DHT22;4618;48.818;9.088;2022-12-26T15:27:27;10.40;1.00
9167;DHT22;4618;48.818;9.088;2022-12-26T15:33:02;10.40;1.00
9167;DHT22;4618;48.818;9.088;2022-12-26T15:38:36;10.30;1.00
9167;DHT22;4618;48.818;9.088;2022-12-26T15:41:12;10.40;1.00
9167;DHT22;4618;48.818;9.088;2022-12-26T15:46:35;10.40;1.00
9167;DHT22;4618;48.818;9.088;2022-12-26T15:58:01;10.40;1.00
9167;DHT22;4618;48.818;9.088;2022-12-26T16:00:31;10.30;1.00
9167;DHT22;4618;48.818;9.088;2022-12-26T16:11:21;10.20;1.00
9167;DHT22;4618;48.818;9.088;2022-12-26T16:13:58;10.20;1.00
9167;DHT22;4618;48.818;9.088;2022-12-26T16:16:35;10.10;1.00
9167;DHT22;4618;48.818;9.088;2022-12-26T16:19:19;10.10;1.00
9167;DHT22;4618;48.818;9.088;2022-12-26T16:21:50;10.20;1.00
9167;DHT22;4618;48.818;9.088;2022-12-26T16:24:36;10.10;1.00
9167;DHT22;4618;48.818;9.088;2022-12-26T16:27:05;10.10;1.00
9167;DHT22;4618;48.818;9.088;2022-12-26T16:29:31;10.10;1.00
9167;DHT22;4618;48.818;9.088;2022-12-26T16:32:02;10.00;1.00
9167;DHT22;4618;48.818;9.088;2022-12-26T16:34:29;10.00;1.00
9167;DHT22;4618;48.818;9.088;2022-12-26T16:36:56;10.00;1.00
9167;DHT22;4618;48.818;9.088;2022-12-26T16:39:22;10.00;1.00
9167;DHT22;4618;48.818;9.088;2022-12-26T16:42:26;10.00;34.60
9167;DHT22;4618;48.818;9.088;2022-12-26T16:44:54;10.00;1.00
9167;DHT22;4618;48.818;9.088;2022-12-26T16:47:20;10.00;75.20
9167;DHT22;4618;48.818;9.088;2022-12-26T16:49:46;10.00;27.60
9167;DHT22;4618;48.818;9.088;2022-12-26T16:52:33;9.90;80.20
9167;DHT22;4618;48.818;9.088;2022-12-26T16:57:47;9.90;99.90
9167;DHT22;4618;48.818;9.088;2022-12-26T17:00:18;9.90;99.90
9167;DHT22;4618;48.818;9.088;2022-12-26T17:02:47;9.90;99.90
9167;DHT22;4618;48.818;9.088;2022-12-26T17:05:21;9.80;99.90
9167;DHT22;4618;48.818;9.088;2022-12-26T17:07:49;9.90;99.90
9167;DHT22;4618;48.818;9.088;2022-12-26T17:10:28;9.80;1.00
9167;DHT22;4618;48.818;9.088;2022-12-26T17:12:57;9.80;1.00
9167;DHT22;4618;48.818;9.088;2022-12-26T17:15:31;9.80;1.00
9167;DHT22;4618;48.818;9.088;2022-12-26T17:17:58;9.70;1.00
9167;DHT22;4618;48.818;9.088;2022-12-26T17:22:54;9.70;1.00
9167;DHT22;4618;48.818;9.088;2022-12-26T17:25:27;9.70;1.00
9167;DHT22;4618;48.818;9.088;2022-12-26T17:30:36;9.50;99.90
9167;DHT22;4618;48.818;9.088;2022-12-26T17:35:36;9.40;1.00
9167;DHT22;4618;48.818;9.088;2022-12-26T17:38:05;9.30;99.90
9167;DHT22;4618;48.818;9.088;2022-12-26T17:40:33;9.30;99.90
9167;DHT22;4618;48.818;9.088;2022-12-26T17:45:42;9.20;1.00
9167;DHT22;4618;48.818;9.088;2022-12-26T17:48:09;9.20;99.90
9167;DHT22;4618;48.818;9.088;2022-12-26T17:50:38;9.20;99.90
9167;DHT22;4618;48.818;9.088;2022-12-26T17:53:06;9.20;99.90
9167;DHT22;4618;48.818;9.088;2022-12-26T17:55:32;9.30;38.80
9167;DHT22;4618;48.818;9.088;2022-12-26T17:57:58;9.30;99.90
9167;DHT22;4618;48.818;9.088;2022-12-26T18:00:26;9.10;99.90
9167;DHT22;4618;48.818;9.088;2022-12-26T18:02:51;9.20;99.90
9167;DHT22;4618;48.818;9.088;2022-12-26T18:05:18;9.20;99.90
9167;DHT22;4618;48.818;9.088;2022-12-26T18:07:45;9.10;99.90
9167;DHT22;4618;48.818;9.088;2022-12-26T18:10:23;9.10;1.00
9167;DHT22;4618;48.818;9.088;2022-12-26T18:12:49;9.10;1.00
9167;DHT22;4618;48.818;9.088;2022-12-26T18:15:15;9.00;1.00
9167;DHT22;4618;48.818;9.088;2022-12-26T18:17:42;9.10;1.00
9167;DHT22;4618;48.818;9.088;2022-12-26T18:20:18;9.10;1.00
9167;DHT22;4618;48.818;9.088;2022-12-26T18:22:44;9.10;1.00
9167;DHT22;4618;48.818;9.088;2022-12-26T18:25:16;9.00;99.90
9167;DHT22;4618;48.818;9.088;2022-12-26T18:27:42;9.10;99.90
9167;DHT22;4618;48.818;9.088;2022-12-26T18:30:23;9.00;99.90
9167;DHT22;4618;48.818;9.088;2022-12-26T18:32:50;9.00;1.00
9167;DHT22;4618;48.818;9.088;2022-12-26T18:35:16;8.90;1.00
9167;DHT22;4618;48.818;9.088;2022-12-26T18:37:46;8.80;1.00
9167;DHT22;4618;48.818;9.088;2022-12-26T18:42:59;8.60;1.00
9167;DHT22;4618;48.818;9.088;2022-12-26T18:45:25;8.50;1.00
9167;DHT22;4618;48.818;9.088;2022-12-26T18:47:51;8.40;1.00
9167;DHT22;4618;48.818;9.088;2022-12-26T18:50:16;8.20;67.30
9167;DHT22;4618;48.818;9.088;2022-12-26T18:52:42;8.20;1.00
9167;DHT22;4618;48.818;9.088;2022-12-26T18:55:09;8.10;1.00
9167;DHT22;4618;48.818;9.088;2022-12-26T18:57:34;8.00;1.00
9167;DHT22;4618;48.818;9.088;2022-12-26T19:00:00;8.00;1.00
9167;DHT22;4618;48.818;9.088;2022-12-26T19:02:26;8.00;1.00
9167;DHT22;4618;48.818;9.088;2022-12-26T19:04:51;7.90;1.00
9167;DHT22;4618;48.818;9.088;2022-12-26T19:07:18;7.90;1.00
9167;DHT22;4618;48.818;9.088;2022-12-26T19:09:49;7.90;1.00
9167;DHT22;4618;48.818;9.088;2022-12-26T19:12:16;7.80;1.00
9167;DHT22;4618;48.818;9.088;2022-12-26T19:14:43;7.80;1.00
9167;DHT22;4618;48.818;9.088;2022-12-26T19:17:09;7.80;99.90
9167;DHT22;4618;48.818;9.088;2022-12-26T19:19:35;7.80;99.90
9167;DHT22;4618;48.818;9.088;2022-12-26T19:22:01;7.80;99.90
9167;DHT22;4618;48.818;9.088;2022-12-26T19:24:26;7.80;83.00
9167;DHT22;4618;48.818;9.088;2022-12-26T19:26:52;7.90;1.00
9167;DHT22;4618;48.818;9.088;2022-12-26T19:29:18;8.00;1.00
9167;DHT22;4618;48.818;9.088;2022-12-26T19:31:43;8.00;1.00
9167;DHT22;4618;48.818;9.088;2022-12-26T19:34:09;8.00;1.00
9167;DHT22;4618;48.818;9.088;2022-12-26T19:36:35;8.10;1.00
9167;DHT22;4618;48.818;9.088;2022-12-26T19:39:01;8.00;99.90
9167;DHT22;4618;48.818;9.088;2022-12-26T19:41:27;8.10;99.90
9167;DHT22;4618;48.818;9.088;2022-12-26T19:43:57;8.10;1.00
9167;DHT22;4618;48.818;9.088;2022-12-26T19:46:23;8.00;1.00
9167;DHT22;4618;48.818;9.088;2022-12-26T19:48:49;8.00;99.90
9167;DHT22;4618;48.818;9.088;2022-12-26T19:51:15;8.10;99.90
9167;DHT22;4618;48.818;9.088;2022-12-26T19:53:42;8.00;99.90
9167;DHT22;4618;48.818;9.088;2022-12-26T19:56:10;8.10;1.00
9167;DHT22;4618;48.818;9.088;2022-12-26T19:58:36;8.10;99.90
9167;DHT22;4618;48.818;9.088;2022-12-26T20:01:07;8.10;99.90
9167;DHT22;4618;48.818;9.088;2022-12-26T20:03:33;8.20;1.00
9167;DHT22;4618;48.818;9.088;2022-12-26T20:05:59;8.20;1.00
9167;DHT22;4618;48.818;9.088;2022-12-26T20:08:27;8.20;1.00
9167;DHT22;4618;48.818;9.088;2022-12-26T20:10:53;8.20;1.00
9167;DHT22;4618;48.818;9.088;2022-12-26T20:13:19;8.20;99.90
9167;DHT22;4618;48.818;9.088;2022-12-26T20:15:44;8.20;99.90
9167;DHT22;4618;48.818;9.088;2022-12-26T20:18:10;8.10;99.90